Airfield :
LOGIN :

Register | Disclaimer

   EN    FR    IT 

 










Legend :    VFR   Marginal VFR   IFR   Intensive IFR   Very Intensive IFR
Visi :
Ceiling :
>= 8 km
>= 3000ft
5 to 8 km
1000 to 3000 ft
1500m to 5 km
500 to 1000 ft
800 to 1500m
200 to 500 ft
< 800m
< 200 ft
Symbols :   Thunderstorms  Fog  Heavy snow  Heavy precipitations  Wind > 20 kt
SIGMETs :     Misc.  Thunderstorms  Icing  Turbulence  Mountain Waves  Volcanic Ashes







- Airport Elevation : 681 ft
- IATA code : LBA
- Download approach charts


EGNM - Leeds Bradford

CURRENT METAR :
  • 262350Z 10008KT 9999 BKN044 12/10 Q1012

EXPIRED METARs :
  • 262320Z 11008KT 9999 BKN046 12/09 Q1013
  • 262250Z 10009KT 9999 BKN048 12/09 Q1013
  • 262220Z 10008KT 9999 SCT048 12/09 Q1013
  • 262150Z 11008KT CAVOK 12/09 Q1013
  • 262120Z 11009KT CAVOK 12/10 Q1013

TAF TAF EGNM
Valid from the 27 at 00:00 until the 28 at 00:00 UTC


262305Z 2700/2724 11010KT 9999 SCT045
TEMPO 2702/2724 7000 RA BKN010
PROB40
TEMPO 2710/2718 3000 RADZ BKN004
PROB30
TEMPO 2718/2724 1200 RADZ BR BKN001
ATIS : +44 113 250 9696 (x2489)
No reported NOTAMs for that airfield.



MET'MAP, your aeronautical weather chart ! - Copyright ORBIFLY December 2007 - Disclaimer

ORBIFLY MET'MAP TEAM :

Programming & Development : Alexandra Zaïnal
Concept & Development : Baudouin d'Aumeries
Co-Development & Prog : Marc-Olivier Méhu
Technical & hardware support : Manuel Goepfert

Contact : metmap@orbifly.com




SOURCES & CREDITS :

   NOAA